Time;durP1;ratioP1;P1;durP2;ratioP2;P2;SDS_P1;SDS_P2;PMS_P1;PMS_P2;Temp;Humidity;BMP_temperature;BMP_pressure;BME280_temperature;BME280_humidity;BME280_pressure;Samples;Min_cycle;Max_cycle;Signal;HPM_P1;HPM_P2
2022/11/19 00:01:22;;;;;;;10.97;6.40;;;-5.00;56.70;;;;;;5092475;28;20244;-85
2022/11/19 00:03:49;;;;;;;14.73;6.63;;;-5.00;64.30;;;;;;5092517;28;20195;-82
2022/11/19 00:06:18;;;;;;;14.17;6.40;;;-5.00;82.60;;;;;;5093702;28;20195;-82
2022/11/19 00:08:46;;;;;;;13.07;6.77;;;-5.00;87.00;;;;;;5092322;28;20244;-82
2022/11/19 00:11:15;;;;;;;15.23;7.07;;;-5.00;94.50;;;;;;5095996;28;20194;-83
2022/11/19 00:13:42;;;;;;;16.90;8.03;;;-5.00;99.90;;;;;;5096482;28;20195;-83
2022/11/19 00:16:13;;;;;;;12.37;6.53;;;-5.10;99.90;;;;;;5096310;28;20215;-83
2022/11/19 00:18:41;;;;;;;10.10;5.93;;;-5.10;97.30;;;;;;5096268;28;20220;-82
2022/11/19 00:21:10;;;;;;;13.53;7.20;;;-5.10;49.40;;;;;;5096029;28;20626;-82
2022/11/19 00:23:37;;;;;;;14.47;7.07;;;-5.20;35.90;;;;;;5113907;28;20672;-83
2022/11/19 00:26:10;;;;;;;12.80;6.80;;;-5.20;83.40;;;;;;5116527;28;20198;-82
2022/11/19 00:28:38;;;;;;;14.43;7.73;;;-5.30;99.90;;;;;;5116571;28;20206;-82
2022/11/19 00:31:07;;;;;;;14.27;6.90;;;-5.30;99.90;;;;;;5116039;28;20217;-82
2022/11/19 00:33:36;;;;;;;17.23;7.53;;;-5.30;99.90;;;;;;5116376;28;20557;-83
2022/11/19 00:36:05;;;;;;;20.27;8.07;;;-5.30;99.90;;;;;;5115977;28;20211;-82
2022/11/19 00:38:33;;;;;;;19.70;8.17;;;-5.20;99.90;;;;;;5103516;28;20264;-82
2022/11/19 00:41:00;;;;;;;16.57;7.77;;;-5.20;99.90;;;;;;5095674;28;20245;-83
2022/11/19 00:46:12;;;;;;;18.77;7.57;;;-5.20;99.90;;;;;;5115744;28;20689;-83
2022/11/19 00:48:41;;;;;;;16.80;8.60;;;-5.20;99.90;;;;;;5104295;28;20191;-82
2022/11/19 00:51:09;;;;;;;27.33;12.57;;;-5.20;99.90;;;;;;5095766;28;20236;-83
2022/11/19 00:53:36;;;;;;;18.50;9.03;;;-5.20;99.90;;;;;;5095696;28;20195;-84
2022/11/19 00:56:06;;;;;;;18.83;9.40;;;-5.10;99.90;;;;;;5095268;28;20220;-84
2022/11/19 00:58:33;;;;;;;18.60;8.43;;;-5.10;99.90;;;;;;5095654;28;20195;-82
2022/11/19 01:01:00;;;;;;;16.13;7.23;;;-5.20;99.90;;;;;;5095198;28;20652;-83
2022/11/19 01:03:27;;;;;;;10.03;5.87;;;-5.20;99.90;;;;;;5113180;28;20198;-83
2022/11/19 01:05:56;;;;;;;11.93;5.50;;;-5.20;99.90;;;;;;5115073;28;20190;-83
2022/11/19 01:08:23;;;;;;;11.17;6.03;;;-5.10;99.90;;;;;;5115767;28;20228;-82
2022/11/19 01:10:50;;;;;;;13.63;6.30;;;-5.10;99.90;;;;;;5115639;28;20191;-83
2022/11/19 01:13:35;;;;;;;12.33;6.37;;;-5.00;99.90;;;;;;5115894;28;20590;-83
2022/11/19 01:16:05;;;;;;;13.17;6.63;;;-5.00;99.90;;;;;;5115683;27;20202;-82
2022/11/19 01:18:33;;;;;;;15.97;6.47;;;-5.00;99.90;;;;;;5115260;28;20197;-82
2022/11/19 01:21:01;;;;;;;14.10;6.33;;;-5.00;99.90;;;;;;5114786;28;20604;-83
2022/11/19 01:23:28;;;;;;;11.27;6.17;;;-5.00;99.90;;;;;;5099873;28;20212;-82
2022/11/19 01:25:55;;;;;;;10.80;5.87;;;-5.00;99.90;;;;;;5094973;28;20286;-83
2022/11/19 01:28:22;;;;;;;13.13;6.80;;;-5.00;99.90;;;;;;5095001;28;20199;-84
2022/11/19 01:30:49;;;;;;;12.53;6.37;;;-5.00;99.90;;;;;;5094833;28;20272;-82
2022/11/19 01:33:17;;;;;;;10.93;5.47;;;-5.00;99.90;;;;;;5094861;28;20187;-83
2022/11/19 01:35:44;;;;;;;12.00;6.10;;;-5.00;99.90;;;;;;5094863;28;20244;-84
2022/11/19 01:38:12;;;;;;;11.90;6.03;;;-5.10;99.90;;;;;;5094806;28;20211;-82
2022/11/19 01:40:43;;;;;;;13.70;6.07;;;-5.10;99.90;;;;;;5094459;28;20198;-84
2022/11/19 01:43:12;;;;;;;10.30;5.77;;;-5.20;99.90;;;;;;5105367;28;20656;-83
2022/11/19 01:45:41;;;;;;;11.33;5.60;;;-5.20;99.90;;;;;;5114718;28;20193;-85
2022/11/19 01:48:14;;;;;;;13.73;6.47;;;-5.30;99.90;;;;;;5115066;28;20198;-81
2022/11/19 01:50:46;;;;;;;10.80;5.57;;;-5.30;99.90;;;;;;5114950;28;20181;-82
2022/11/19 01:53:15;;;;;;;12.73;6.20;;;-5.30;99.90;;;;;;5114994;28;20187;-82
2022/11/19 01:55:43;;;;;;;11.93;6.43;;;-5.30;99.90;;;;;;5114799;28;20674;-82
2022/11/19 01:58:12;;;;;;;15.40;7.50;;;-5.30;99.90;;;;;;5114741;28;20218;-83
2022/11/19 02:00:39;;;;;;;28.40;12.87;;;-5.40;99.90;;;;;;5114694;28;20657;-83
2022/11/19 02:03:06;;;;;;;22.57;9.90;;;-5.40;99.90;;;;;;5102931;27;20191;-82
2022/11/19 02:05:34;;;;;;;27.53;11.43;;;-5.40;99.90;;;;;;5094281;28;20202;-83
2022/11/19 02:08:05;;;;;;;19.70;8.83;;;-5.30;99.90;;;;;;5094278;28;20198;-84
2022/11/19 02:10:53;;;;;;;19.57;9.30;;;-5.30;99.90;;;;;;5094250;28;20581;-82
2022/11/19 02:13:28;;;;;;;23.57;8.90;;;-5.30;99.90;;;;;;5094137;28;20187;-83
2022/11/19 02:16:04;;;;;;;16.70;7.83;;;-5.40;99.90;;;;;;5094161;28;20190;-81
2022/11/19 02:18:42;;;;;;;18.87;8.53;;;-5.30;99.90;;;;;;5108671;28;20182;-84
2022/11/19 02:21:20;;;;;;;19.93;8.00;;;-5.30;99.90;;;;;;5112352;28;20178;-82
2022/11/19 02:24:15;;;;;;;19.33;8.93;;;-5.40;99.90;;;;;;5114054;28;20178;-83
2022/11/19 02:27:14;;;;;;;23.30;10.70;;;-5.40;99.90;;;;;;5114241;28;20639;-83
2022/11/19 02:30:09;;;;;;;46.50;19.83;;;-5.40;99.90;;;;;;5113886;28;20688;-82
2022/11/19 02:32:50;;;;;;;35.97;15.83;;;-5.50;99.90;;;;;;5114281;28;20230;-83
2022/11/19 02:35:23;;;;;;;23.60;11.27;;;-5.50;99.90;;;;;;5114081;28;20621;-82
2022/11/19 02:37:56;;;;;;;21.40;9.40;;;-5.50;99.90;;;;;;5102471;28;20222;-82
2022/11/19 02:40:28;;;;;;;23.13;10.73;;;-5.50;99.90;;;;;;5093531;28;20184;-83
2022/11/19 02:43:04;;;;;;;46.63;19.27;;;-5.50;99.90;;;;;;5093926;28;20187;-82
2022/11/19 02:45:37;;;;;;;31.77;14.33;;;-5.40;99.90;;;;;;5094141;28;20207;-82
2022/11/19 02:48:10;;;;;;;35.80;15.23;;;-5.40;99.90;;;;;;5093200;28;20207;-83
2022/11/19 02:50:42;;;;;;;34.13;14.60;;;-5.40;99.90;;;;;;5093492;28;20228;-83
2022/11/19 02:53:10;;;;;;;30.83;14.70;;;-5.40;99.90;;;;;;5093115;28;20210;-83
2022/11/19 02:55:39;;;;;;;22.90;11.73;;;-5.40;99.90;;;;;;5093404;28;20195;-82
2022/11/19 02:58:10;;;;;;;27.20;11.90;;;-5.40;99.90;;;;;;5104624;28;20210;-82
2022/11/19 03:06:17;;;;;;;24.43;11.53;;;-5.50;99.90;;;;;;5113380;28;20544;-84
2022/11/19 03:08:46;;;;;;;20.97;9.70;;;-5.50;99.90;;;;;;5113188;28;20210;-81
2022/11/19 03:11:20;;;;;;;26.40;11.63;;;-5.50;99.90;;;;;;5113156;28;20187;-81
2022/11/19 03:16:47;;;;;;;32.37;14.27;;;-5.70;99.90;;;;;;5113087;28;20251;-82
2022/11/19 03:19:36;;;;;;;38.03;14.50;;;-5.60;99.90;;;;;;5112564;28;20190;-82
2022/11/19 03:22:10;;;;;;;30.27;13.27;;;-5.60;99.90;;;;;;5113287;28;20191;-82
2022/11/19 03:24:40;;;;;;;26.97;12.37;;;-5.60;99.90;;;;;;5113309;28;20182;-81
2022/11/19 03:27:13;;;;;;;25.40;12.37;;;-5.60;99.90;;;;;;5112945;28;20175;-83
2022/11/19 03:29:45;;;;;;;33.93;15.40;;;-5.60;99.90;;;;;;5112908;28;20233;-82
2022/11/19 03:32:18;;;;;;;34.97;15.57;;;-5.60;99.90;;;;;;5113155;28;20549;-83
2022/11/19 03:34:48;;;;;;;31.37;15.17;;;-5.60;99.90;;;;;;5113322;28;20187;-84
2022/11/19 03:37:19;;;;;;;30.60;14.33;;;-5.60;99.90;;;;;;5104263;28;20214;-81
2022/11/19 03:39:48;;;;;;;32.20;14.40;;;-5.60;99.90;;;;;;5092433;28;20660;-83
2022/11/19 03:42:17;;;;;;;30.13;14.83;;;-5.60;99.90;;;;;;5092731;28;20202;-84
2022/11/19 03:44:49;;;;;;;34.77;15.73;;;-5.60;99.90;;;;;;5092100;28;20203;-83
2022/11/19 03:47:21;;;;;;;35.87;17.80;;;-5.50;99.90;;;;;;5092684;28;20187;-84
2022/11/19 03:49:53;;;;;;;39.03;18.93;;;-5.60;99.90;;;;;;5092361;28;20574;-82
2022/11/19 03:52:21;;;;;;;39.90;17.20;;;-5.60;99.90;;;;;;5101000;28;20232;-81
2022/11/19 03:54:49;;;;;;;35.67;16.90;;;-5.60;99.90;;;;;;5112878;28;20222;-84
2022/11/19 03:57:18;;;;;;;34.10;16.17;;;-5.50;99.90;;;;;;5112088;28;20217;-82
2022/11/19 03:59:46;;;;;;;35.70;16.93;;;-5.60;99.90;;;;;;5112503;28;20635;-84
2022/11/19 04:02:14;;;;;;;39.93;19.27;;;-5.60;99.90;;;;;;5112169;28;20182;-82
2022/11/19 04:04:43;;;;;;;43.43;21.40;;;-5.60;99.90;;;;;;5112170;28;20194;-82
2022/11/19 04:07:11;;;;;;;42.73;20.30;;;-5.70;99.90;;;;;;5112767;28;20197;-83
2022/11/19 04:09:39;;;;;;;39.60;18.60;;;-5.60;99.90;;;;;;5112698;28;20581;-82
2022/11/19 04:12:08;;;;;;;43.50;19.73;;;-5.60;99.90;;;;;;5105415;28;20206;-83
2022/11/19 04:14:35;;;;;;;35.13;16.83;;;-5.60;99.90;;;;;;5092399;28;20260;-82
2022/11/19 04:17:02;;;;;;;38.37;19.03;;;-5.70;99.90;;;;;;5092255;28;20538;-81
2022/11/19 04:19:29;;;;;;;38.10;18.17;;;-5.70;99.90;;;;;;5092645;28;20199;-84
2022/11/19 04:21:58;;;;;;;42.10;19.13;;;-5.70;99.90;;;;;;5092399;28;20245;-82
2022/11/19 04:24:25;;;;;;;43.67;18.77;;;-5.70;99.90;;;;;;5091967;28;20199;-81
2022/11/19 04:26:52;;;;;;;35.60;18.00;;;-5.60;99.90;;;;;;5092003;28;20196;-84
2022/11/19 04:29:19;;;;;;;38.67;17.47;;;-5.60;99.90;;;;;;5092200;28;20649;-83
2022/11/19 04:31:46;;;;;;;34.40;15.93;;;-5.50;1.00;;;;;;5094504;28;20237;-82
2022/11/19 04:34:13;;;;;;;40.10;18.20;;;-5.40;1.00;;;;;;5112523;28;20619;-83
2022/11/19 04:36:41;;;;;;;54.43;25.73;;;-5.40;1.00;;;;;;5111935;28;20193;-82
2022/11/19 04:39:11;;;;;;;52.77;24.93;;;-5.40;1.00;;;;;;5112237;28;20230;-81
2022/11/19 04:41:39;;;;;;;43.13;21.47;;;-5.30;1.00;;;;;;5112755;28;20191;-81
2022/11/19 04:44:06;;;;;;;48.47;22.07;;;-5.30;1.00;;;;;;5112437;28;20255;-83
2022/11/19 04:46:34;;;;;;;54.53;27.30;;;-5.20;1.00;;;;;;5112502;28;20202;-84
2022/11/19 04:49:01;;;;;;;38.77;19.53;;;-5.10;1.00;;;;;;5112599;28;20679;-82
2022/11/19 04:51:29;;;;;;;39.40;19.70;;;-5.10;1.00;;;;;;5100636;28;20240;-82
2022/11/19 04:53:56;;;;;;;46.10;21.23;;;-5.00;1.00;;;;;;5097477;28;20191;-83
2022/11/19 04:56:25;;;;;;;39.13;18.90;;;-4.90;1.00;;;;;;5112300;28;20671;-83
2022/11/19 04:58:52;;;;;;;50.37;24.57;;;-4.80;1.00;;;;;;5115546;28;20246;-82
2022/11/19 05:01:20;;;;;;;44.50;22.13;;;-4.70;1.00;;;;;;5115979;28;20599;-82
2022/11/19 05:03:47;;;;;;;37.70;19.47;;;-4.60;1.00;;;;;;5115550;28;20271;-82
2022/11/19 05:06:14;;;;;;;43.50;22.73;;;-4.40;1.00;;;;;;5106023;28;20191;-84
2022/11/19 05:08:41;;;;;;;44.77;20.80;;;-4.30;1.00;;;;;;5095438;28;20274;-83
2022/11/19 05:11:08;;;;;;;42.23;19.73;;;-4.20;1.00;;;;;;5095090;28;20660;-82
2022/11/19 05:13:37;;;;;;;40.57;18.83;;;-4.10;1.00;;;;;;5095197;28;20207;-82
2022/11/19 05:16:04;;;;;;;41.80;17.63;;;-4.00;99.90;;;;;;5095017;28;20195;-82
2022/11/19 05:18:31;;;;;;;35.60;17.40;;;-3.90;99.90;;;;;;5095372;28;20272;-82
2022/11/19 05:20:58;;;;;;;36.10;14.60;;;-3.80;99.90;;;;;;5095153;28;20556;-82
2022/11/19 05:23:25;;;;;;;31.93;15.93;;;-3.80;99.90;;;;;;5094894;28;20203;-81
2022/11/19 05:25:53;;;;;;;26.87;12.70;;;-3.70;99.90;;;;;;5097914;28;20187;-82
2022/11/19 05:28:20;;;;;;;25.10;13.40;;;-3.60;99.90;;;;;;5115145;28;20194;-82
2022/11/19 05:30:48;;;;;;;33.17;16.37;;;-3.60;99.90;;;;;;5115272;28;20258;-84
2022/11/19 05:33:15;;;;;;;28.53;14.77;;;-3.50;99.90;;;;;;5114973;28;20721;-82
2022/11/19 05:35:42;;;;;;;28.57;14.20;;;-3.60;99.90;;;;;;5114971;28;20191;-82
2022/11/19 05:38:09;;;;;;;27.20;13.10;;;-3.60;99.90;;;;;;5115199;28;20215;-84
2022/11/19 05:40:36;;;;;;;26.97;14.33;;;-3.50;99.90;;;;;;5114892;28;20195;-82
2022/11/19 05:43:04;;;;;;;27.33;13.33;;;-3.50;1.00;;;;;;5115363;28;20195;-82
2022/11/19 05:45:32;;;;;;;26.43;12.30;;;-3.50;1.00;;;;;;5106184;28;20710;-83
2022/11/19 05:48:00;;;;;;;21.33;10.50;;;-3.50;1.00;;;;;;5094627;28;20194;-84
2022/11/19 05:50:27;;;;;;;19.50;9.50;;;-3.60;1.00;;;;;;5094554;28;20206;-82
2022/11/19 05:52:54;;;;;;;17.93;8.77;;;-3.50;1.00;;;;;;5095315;28;20681;-82
2022/11/19 05:55:21;;;;;;;17.37;9.00;;;-3.50;1.00;;;;;;5114256;28;20190;-82
2022/11/19 05:57:48;;;;;;;16.83;8.73;;;-3.40;1.00;;;;;;5114772;28;20222;-82
2022/11/19 06:00:16;;;;;;;18.97;9.83;;;-3.40;1.00;;;;;;5114407;28;20187;-82
2022/11/19 06:02:43;;;;;;;19.10;9.30;;;-3.30;1.00;;;;;;5114582;28;20652;-81
2022/11/19 06:05:12;;;;;;;22.00;10.37;;;-3.30;1.00;;;;;;5114396;28;20235;-82
2022/11/19 06:07:39;;;;;;;19.80;9.87;;;-3.30;1.00;;;;;;5110367;28;20187;-82
2022/11/19 06:10:07;;;;;;;18.37;9.77;;;-3.20;1.00;;;;;;5094324;28;20728;-82
2022/11/19 06:12:34;;;;;;;19.00;10.00;;;-3.20;1.00;;;;;;5094096;28;20205;-82
2022/11/19 06:15:01;;;;;;;19.33;9.70;;;-3.10;1.00;;;;;;5094027;28;20199;-82
2022/11/19 06:17:29;;;;;;;17.37;9.33;;;-3.00;1.00;;;;;;5093618;28;20268;-83
2022/11/19 06:19:56;;;;;;;18.47;10.33;;;-2.90;1.00;;;;;;5093402;28;20187;-83
2022/11/19 06:22:24;;;;;;;18.17;8.43;;;-2.90;1.00;;;;;;5093467;28;20278;-81
2022/11/19 06:24:51;;;;;;;17.47;8.97;;;-2.80;99.90;;;;;;5090565;28;20191;-82
2022/11/19 06:27:18;;;;;;;19.40;9.70;;;-2.70;99.90;;;;;;5093512;28;20213;-82
2022/11/19 06:29:45;;;;;;;17.83;8.83;;;-2.70;99.90;;;;;;5093357;28;20227;-82
2022/11/19 06:32:12;;;;;;;18.40;8.60;;;-2.60;99.90;;;;;;5112167;28;20596;-81
2022/11/19 06:34:39;;;;;;;14.40;7.97;;;-2.60;99.90;;;;;;5113855;28;20243;-83
2022/11/19 06:37:07;;;;;;;14.43;7.50;;;-2.50;99.90;;;;;;5114060;28;20580;-82
2022/11/19 06:39:35;;;;;;;16.77;8.57;;;-2.40;99.90;;;;;;5114281;28;20215;-82
2022/11/19 06:44:43;;;;;;;16.23;8.33;;;-2.30;1.00;;;;;;5093186;28;20179;-84
2022/11/19 06:47:10;;;;;;;15.27;8.60;;;-2.20;1.00;;;;;;5093602;28;20202;-81
2022/11/19 06:49:37;;;;;;;18.40;9.83;;;-2.10;1.00;;;;;;5093148;28;20187;-81
2022/11/19 06:52:04;;;;;;;18.87;10.73;;;-2.10;1.00;;;;;;5093316;28;20191;-82
2022/11/19 06:54:31;;;;;;;19.50;9.50;;;-2.00;1.00;;;;;;5093678;28;20196;-81
2022/11/19 06:57:00;;;;;;;15.60;8.77;;;-2.00;1.00;;;;;;5093340;28;20191;-81
2022/11/19 06:59:28;;;;;;;18.67;9.83;;;-1.90;1.00;;;;;;5093250;28;20247;-82
2022/11/19 07:01:56;;;;;;;18.77;9.80;;;-1.80;1.00;;;;;;5111406;28;20187;-84
2022/11/19 07:04:30;;;;;;;19.60;11.33;;;-1.80;1.00;;;;;;5108820;28;20649;-83
2022/11/19 07:06:57;;;;;;;25.60;12.70;;;-1.70;1.00;;;;;;5099175;28;20190;-82
2022/11/19 07:09:24;;;;;;;25.70;14.13;;;-1.60;1.00;;;;;;5100155;28;20203;-82
2022/11/19 07:11:51;;;;;;;20.23;10.43;;;-1.60;1.00;;;;;;5103573;28;20179;-81
2022/11/19 07:14:20;;;;;;;17.07;9.60;;;-1.50;1.00;;;;;;5092557;28;20248;-82
2022/11/19 07:16:50;;;;;;;14.93;8.83;;;-1.40;1.00;;;;;;5107418;28;20191;-83
2022/11/19 07:19:18;;;;;;;19.13;9.60;;;-1.40;1.00;;;;;;5101216;28;20223;-83
2022/11/19 07:21:45;;;;;;;18.90;8.93;;;-1.40;1.00;;;;;;5091475;28;20706;-83
2022/11/19 07:24:15;;;;;;;20.03;9.90;;;-1.30;1.00;;;;;;5094594;28;20187;-83
2022/11/19 07:26:43;;;;;;;21.47;10.93;;;-1.30;1.00;;;;;;5080252;28;20270;-80
2022/11/19 07:29:13;;;;;;;28.10;15.83;;;-1.20;1.00;;;;;;5095390;28;20238;-84
2022/11/19 07:31:41;;;;;;;27.43;16.40;;;-1.30;1.00;;;;;;5095244;28;20222;-83
2022/11/19 07:34:09;;;;;;;22.83;14.80;;;-1.20;1.00;;;;;;5099030;28;20202;-84
2022/11/19 07:36:37;;;;;;;21.10;13.33;;;-1.20;1.00;;;;;;5102884;28;20225;-81
2022/11/19 07:39:05;;;;;;;24.20;13.83;;;-1.20;1.00;;;;;;5093142;28;20229;-83
2022/11/19 07:44:16;;;;;;;30.20;17.63;;;-1.00;1.00;;;;;;5095261;28;20606;-81
2022/11/19 07:46:45;;;;;;;27.30;14.60;;;-1.00;1.00;;;;;;5096061;28;20768;-84
2022/11/19 07:49:12;;;;;;;26.97;14.13;;;-0.90;1.00;;;;;;5095421;28;20195;-84
2022/11/19 07:51:39;;;;;;;25.27;14.13;;;-0.80;1.00;;;;;;5091375;28;20668;-82
2022/11/19 07:54:08;;;;;;;28.30;14.03;;;-0.80;99.90;;;;;;5096978;28;20210;-82
2022/11/19 07:56:35;;;;;;;25.87;13.27;;;-0.80;99.90;;;;;;5096784;28;20241;-82
2022/11/19 07:59:03;;;;;;;26.13;13.20;;;-0.70;99.90;;;;;;5096693;28;20239;-83
2022/11/19 08:01:31;;;;;;;31.07;15.43;;;-0.60;99.90;;;;;;5097630;28;20657;-82
2022/11/19 08:04:04;;;;;;;21.30;11.67;;;-0.60;99.90;;;;;;5099073;28;20198;-84
2022/11/19 08:06:33;;;;;;;23.20;11.90;;;-0.60;99.90;;;;;;5094775;28;20258;-82
2022/11/19 08:09:02;;;;;;;34.67;14.20;;;-0.50;99.90;;;;;;5091295;28;20202;-84
2022/11/19 08:11:31;;;;;;;31.30;13.40;;;-0.40;99.90;;;;;;5098647;28;20197;-84
2022/11/19 08:13:59;;;;;;;28.20;13.80;;;-0.40;99.90;;;;;;5099759;28;20175;-82
2022/11/19 08:19:14;;;;;;;25.97;13.57;;;-0.20;99.90;;;;;;5090808;28;20782;-81
2022/11/19 08:21:44;;;;;;;24.40;12.20;;;-0.20;99.90;;;;;;5094937;28;20199;-84
2022/11/19 08:24:18;;;;;;;24.17;12.40;;;-0.10;99.90;;;;;;5096591;28;20649;-85
2022/11/19 08:26:58;;;;;;;21.23;10.43;;;-0.10;99.90;;;;;;5089057;28;20279;-83
2022/11/19 08:29:25;;;;;;;22.03;12.47;;;0.00;99.90;;;;;;5093411;28;20186;-83
2022/11/19 08:31:52;;;;;;;22.50;11.77;;;0.10;99.90;;;;;;5093834;28;20230;-88
2022/11/19 08:34:21;;;;;;;20.33;11.40;;;0.20;99.90;;;;;;5100188;28;20212;-88
2022/11/19 08:36:49;;;;;;;24.63;13.00;;;0.40;99.90;;;;;;5093496;28;20298;-84
2022/11/19 08:39:16;;;;;;;21.87;12.73;;;0.50;99.90;;;;;;5096428;28;20567;-86
2022/11/19 08:44:29;;;;;;;23.20;12.17;;;0.60;99.90;;;;;;5095998;28;20190;-85
2022/11/19 08:46:56;;;;;;;18.57;11.10;;;0.70;99.90;;;;;;5097705;28;20192;-87
2022/11/19 08:49:28;;;;;;;15.93;9.23;;;0.70;96.70;;;;;;5100481;28;20183;-88
2022/11/19 08:51:57;;;;;;;18.07;10.30;;;0.70;99.90;;;;;;5094691;28;20204;-87
2022/11/19 08:54:24;;;;;;;18.20;10.83;;;0.70;99.90;;;;;;5094857;28;20490;-85
2022/11/19 08:56:51;;;;;;;19.80;11.83;;;0.80;99.90;;;;;;5095158;28;20662;-86
2022/11/19 08:59:20;;;;;;;16.57;9.97;;;0.90;81.40;;;;;;5102084;28;20219;-89
2022/11/19 09:01:48;;;;;;;17.23;9.90;;;0.90;57.40;;;;;;5096915;28;20215;-88
2022/11/19 09:04:15;;;;;;;16.67;9.43;;;1.00;90.70;;;;;;5099730;28;20270;-86
2022/11/19 09:06:44;;;;;;;20.70;10.97;;;1.00;27.70;;;;;;5091737;28;20198;-85
2022/11/19 09:09:11;;;;;;;18.73;10.77;;;1.10;12.40;;;;;;5096294;28;20649;-87
2022/11/19 09:11:39;;;;;;;20.40;11.60;;;1.10;7.30;;;;;;5094717;28;20226;-87
2022/11/19 09:14:06;;;;;;;22.10;11.93;;;1.20;1.00;;;;;;5098423;28;20282;-87
2022/11/19 09:16:33;;;;;;;20.13;11.33;;;1.20;1.00;;;;;;5095053;28;20203;-87
2022/11/19 09:19:01;;;;;;;21.67;12.13;;;1.20;1.00;;;;;;5099122;28;20281;-86
2022/11/19 09:21:37;;;;;;;20.93;13.13;;;1.20;1.00;;;;;;5095566;28;20711;-89
2022/11/19 09:24:06;;;;;;;19.17;10.23;;;1.00;1.00;;;;;;5096811;28;20676;-88
2022/11/19 09:26:33;;;;;;;17.93;10.93;;;0.90;2.40;;;;;;5092981;28;20199;-87
2022/11/19 09:29:00;;;;;;;24.33;12.67;;;0.80;34.60;;;;;;5097299;28;20192;-87
2022/11/19 09:31:27;;;;;;;21.63;10.00;;;0.70;99.90;;;;;;5094103;28;20429;-88
2022/11/19 09:33:55;;;;;;;21.63;12.60;;;0.70;99.90;;;;;;5094451;28;20198;-87
2022/11/19 09:36:22;;;;;;;23.13;11.30;;;0.70;99.90;;;;;;5096663;28;20199;-86
2022/11/19 09:38:49;;;;;;;26.93;14.10;;;0.60;99.90;;;;;;5092317;28;20211;-87
2022/11/19 09:41:43;;;;;;;26.60;13.60;;;0.60;99.90;;;;;;5093226;28;20188;-88
2022/11/19 09:44:22;;;;;;;24.27;13.60;;;0.50;99.90;;;;;;5074911;28;20241;-86
2022/11/19 09:46:58;;;;;;;23.17;12.90;;;0.40;99.90;;;;;;5073950;28;20191;-87
2022/11/19 09:49:30;;;;;;;20.73;12.73;;;0.40;99.90;;;;;;5087432;28;20195;-87
2022/11/19 09:52:04;;;;;;;22.27;13.33;;;0.40;99.90;;;;;;5085167;28;20209;-90
2022/11/19 09:54:33;;;;;;;20.87;12.03;;;0.40;99.90;;;;;;5086052;28;20195;-89
2022/11/19 09:57:06;;;;;;;20.10;12.53;;;0.30;99.90;;;;;;5082097;28;20198;-88
2022/11/19 09:59:36;;;;;;;22.00;11.40;;;0.40;99.90;;;;;;5105143;28;20211;-92
2022/11/19 10:02:15;;;;;;;22.13;13.90;;;0.40;99.90;;;;;;5084703;28;20268;-90
2022/11/19 10:04:43;;;;;;;23.67;13.23;;;0.60;99.90;;;;;;5085561;28;20537;-90
2022/11/19 10:07:18;;;;;;;20.40;11.70;;;0.60;99.90;;;;;;5091992;28;20214;-90
2022/11/19 10:09:59;;;;;;;17.87;10.77;;;0.80;99.90;;;;;;5080690;28;20215;-90
2022/11/19 10:12:47;;;;;;;14.47;9.00;;;0.90;99.90;;;;;;5088897;28;20194;-89
2022/11/19 10:15:23;;;;;;;16.30;9.80;;;1.10;99.90;;;;;;5075405;28;20550;-88
2022/11/19 10:18:01;;;;;;;19.27;10.63;;;1.20;99.90;;;;;;5085779;28;20199;-88
2022/11/19 10:20:51;;;;;;;16.50;9.60;;;1.30;99.90;;;;;;5088562;28;20207;-89
2022/11/19 10:23:21;;;;;;;13.97;8.23;;;1.40;99.90;;;;;;5079102;28;20198;-88
2022/11/19 10:25:52;;;;;;;13.73;7.70;;;1.40;99.90;;;;;;5086881;28;20207;-88
2022/11/19 10:28:25;;;;;;;13.90;8.63;;;1.40;99.90;;;;;;5076065;28;20211;-86
2022/11/19 10:30:55;;;;;;;14.27;8.57;;;1.40;99.90;;;;;;5093127;28;20242;-87
2022/11/19 10:33:28;;;;;;;15.50;8.50;;;1.40;99.90;;;;;;5092683;28;20666;-84
2022/11/19 10:36:00;;;;;;;16.43;10.93;;;1.40;99.90;;;;;;5100219;28;20199;-88
2022/11/19 10:38:36;;;;;;;16.67;9.90;;;1.40;99.90;;;;;;5095238;28;20188;-85
2022/11/19 10:41:11;;;;;;;11.93;7.83;;;1.50;99.90;;;;;;5095461;28;20184;-84
2022/11/19 10:43:47;;;;;;;16.80;11.17;;;1.50;99.90;;;;;;5081271;28;20191;-84
2022/11/19 10:46:18;;;;;;;18.77;12.00;;;1.50;99.90;;;;;;5091475;28;20186;-84
2022/11/19 10:48:49;;;;;;;19.27;11.37;;;1.60;99.90;;;;;;5092695;28;20665;-84
2022/11/19 10:51:22;;;;;;;16.43;10.30;;;1.50;99.90;;;;;;5092592;28;20188;-84
2022/11/19 10:53:52;;;;;;;13.70;8.80;;;1.60;99.90;;;;;;5092702;28;20663;-84
2022/11/19 10:56:22;;;;;;;14.80;9.60;;;1.60;99.90;;;;;;5088960;28;20193;-83
2022/11/19 10:58:54;;;;;;;12.77;8.77;;;1.60;99.90;;;;;;5082719;28;20204;-83
2022/11/19 11:01:28;;;;;;;14.87;10.67;;;1.60;99.90;;;;;;5092408;28;20179;-83
2022/11/19 11:04:09;;;;;;;16.37;11.27;;;1.60;99.90;;;;;;5092529;28;20244;-83
2022/11/19 11:06:53;;;;;;;15.03;10.10;;;1.60;99.90;;;;;;5093851;28;20192;-83
2022/11/19 11:09:34;;;;;;;13.37;8.83;;;1.60;99.90;;;;;;5092250;28;20196;-82
2022/11/19 11:15:00;;;;;;;12.00;7.90;;;1.80;99.90;;;;;;5092795;28;20205;-83
2022/11/19 11:17:34;;;;;;;14.73;7.87;;;1.70;99.90;;;;;;5092413;28;20187;-83
2022/11/19 11:20:04;;;;;;;14.37;9.20;;;1.60;99.90;;;;;;5082659;27;20200;-83
2022/11/19 11:22:32;;;;;;;16.20;9.10;;;1.60;99.90;;;;;;5084270;28;20717;-82
2022/11/19 11:25:00;;;;;;;13.30;8.60;;;1.60;99.90;;;;;;5074895;28;20204;-83
2022/11/19 11:27:32;;;;;;;14.33;9.23;;;1.60;99.90;;;;;;5094874;28;20185;-83
2022/11/19 11:30:22;;;;;;;12.53;8.83;;;1.70;99.90;;;;;;5092585;28;20692;-83
2022/11/19 11:32:49;;;;;;;16.33;9.37;;;1.80;99.90;;;;;;5099584;28;20192;-84
2022/11/19 11:35:32;;;;;;;21.63;12.07;;;2.00;99.90;;;;;;5102835;28;20215;-83
2022/11/19 11:38:00;;;;;;;12.67;8.43;;;2.10;99.90;;;;;;5095733;28;20209;-83
2022/11/19 11:40:27;;;;;;;15.53;9.60;;;2.10;99.90;;;;;;5092262;28;20241;-84
2022/11/19 11:42:55;;;;;;;16.97;10.97;;;2.10;99.90;;;;;;5092082;28;20668;-83
2022/11/19 11:45:39;;;;;;;14.07;8.87;;;2.10;99.90;;;;;;5100952;28;20201;-86
2022/11/19 11:48:08;;;;;;;17.60;12.00;;;2.00;99.90;;;;;;5110660;28;20227;-84
2022/11/19 11:50:37;;;;;;;17.03;10.17;;;2.00;99.90;;;;;;5095863;28;20223;-84
2022/11/19 11:53:09;;;;;;;16.07;8.73;;;2.10;99.90;;;;;;5106033;28;20277;-83
2022/11/19 11:55:37;;;;;;;14.73;10.17;;;2.20;99.90;;;;;;5095305;28;20234;-83
2022/11/19 11:58:06;;;;;;;12.53;8.47;;;2.30;99.90;;;;;;5094902;28;20253;-84
2022/11/19 12:00:39;;;;;;;10.53;7.80;;;2.30;99.90;;;;;;5103328;28;20200;-81
2022/11/19 12:03:08;;;;;;;10.70;8.13;;;2.40;99.90;;;;;;5092184;28;20200;-85
2022/11/19 12:05:45;;;;;;;11.03;8.43;;;2.50;99.90;;;;;;5093151;28;20202;-86
2022/11/19 12:08:27;;;;;;;13.40;9.33;;;2.50;99.90;;;;;;5102754;28;20201;-87
2022/11/19 12:11:02;;;;;;;15.43;9.33;;;2.50;99.90;;;;;;5096393;28;20210;-87
2022/11/19 12:13:53;;;;;;;12.83;9.37;;;2.60;99.90;;;;;;5096204;28;20216;-86
2022/11/19 12:16:41;;;;;;;11.93;8.70;;;2.60;99.90;;;;;;5100961;28;20198;-86
2022/11/19 12:19:40;;;;;;;13.90;10.00;;;2.50;99.90;;;;;;5099489;28;20200;-86
2022/11/19 12:22:22;;;;;;;13.60;8.97;;;2.60;99.90;;;;;;5094421;28;20236;-88
2022/11/19 12:25:14;;;;;;;14.47;9.33;;;2.70;99.90;;;;;;5100287;28;20600;-86
2022/11/19 12:27:57;;;;;;;18.30;11.93;;;2.70;99.90;;;;;;5092042;28;20554;-85
2022/11/19 12:30:35;;;;;;;20.80;12.97;;;2.70;30.00;;;;;;5106646;28;20228;-89
2022/11/19 12:33:22;;;;;;;15.20;9.57;;;2.70;48.40;;;;;;5110091;28;20223;-87
2022/11/19 12:36:04;;;;;;;15.03;8.57;;;2.60;79.30;;;;;;5099474;28;20199;-86
2022/11/19 12:38:46;;;;;;;14.67;8.80;;;2.60;94.60;;;;;;5098067;28;20197;-85
2022/11/19 12:41:33;;;;;;;12.07;7.93;;;2.60;99.90;;;;;;5101573;28;20724;-85
2022/11/19 12:44:02;;;;;;;15.50;8.77;;;2.50;66.20;;;;;;5106916;28;20200;-87
2022/11/19 12:46:43;;;;;;;14.80;9.90;;;2.50;66.40;;;;;;5097987;28;20209;-88
2022/11/19 12:49:35;;;;;;;16.60;10.20;;;2.30;99.90;;;;;;5099399;28;20189;-87
2022/11/19 12:52:19;;;;;;;17.97;9.87;;;2.30;99.90;;;;;;5096956;28;20677;-86
2022/11/19 12:54:57;;;;;;;17.17;10.20;;;2.20;99.90;;;;;;5087519;28;20203;-86
2022/11/19 12:57:41;;;;;;;23.43;13.80;;;2.20;99.90;;;;;;5105569;28;20172;-86
2022/11/19 13:00:18;;;;;;;27.77;16.87;;;2.10;99.90;;;;;;5092994;28;20212;-89
2022/11/19 13:03:01;;;;;;;28.50;18.60;;;2.10;99.90;;;;;;5090199;28;20646;-87
2022/11/19 13:05:38;;;;;;;19.40;12.70;;;2.00;99.90;;;;;;5088983;28;20206;-85
2022/11/19 13:08:23;;;;;;;20.00;13.20;;;2.00;99.90;;;;;;5102782;28;20199;-90
2022/11/19 13:11:05;;;;;;;24.13;14.00;;;2.00;99.90;;;;;;5096335;28;20180;-90
2022/11/19 13:13:35;;;;;;;25.47;16.30;;;2.00;99.90;;;;;;5098929;28;20173;-86
2022/11/19 13:16:09;;;;;;;16.43;11.23;;;2.00;99.90;;;;;;5105944;28;20232;-85
2022/11/19 13:18:40;;;;;;;17.43;12.40;;;2.00;99.90;;;;;;5101193;28;20177;-88
2022/11/19 13:21:22;;;;;;;19.37;12.43;;;2.00;99.90;;;;;;5104783;28;20216;-87
2022/11/19 13:23:51;;;;;;;26.40;18.90;;;2.00;99.90;;;;;;5109287;28;20193;-85